createdAt,value
2022-08-20T15:25:27.346Z,34.25
2022-08-20T15:54:55.160Z,34.01
2022-08-20T16:05:23.162Z,34.60
2022-08-20T16:09:40.050Z,33.84
2022-08-20T16:13:48.028Z,34.26
2022-08-20T16:17:58.098Z,34.54
2022-08-20T16:22:03.462Z,34.92
2022-08-20T16:26:18.716Z,35.36
2022-08-20T16:30:31.217Z,35.16
2022-08-20T16:34:38.553Z,36.91
2022-08-20T16:38:45.911Z,37.40
2022-08-20T16:42:50.142Z,37.27
2022-08-20T16:46:55.931Z,38.16
2022-08-20T16:51:01.315Z,37.51
2022-08-20T16:55:04.700Z,37.14
2022-08-20T16:59:08.871Z,38.41
2022-08-20T17:03:21.493Z,39.20
2022-08-20T17:07:46.046Z,39.29
2022-08-20T17:11:49.348Z,39.42
2022-08-20T17:15:54.903Z,38.64
2022-08-20T17:19:58.910Z,39.15
2022-08-20T17:24:03.815Z,40.44
2022-08-20T17:28:15.253Z,40.62
2022-08-20T17:32:20.622Z,41.01
2022-08-20T17:36:22.450Z,40.28
2022-08-20T17:40:34.498Z,41.84
2022-08-20T17:44:42.141Z,41.02
2022-08-20T17:48:45.689Z,44.31
2022-08-20T17:52:50.698Z,45.00
2022-08-20T17:56:55.753Z,44.09
2022-08-20T18:00:59.762Z,45.13
2022-08-20T18:05:14.262Z,44.95
2022-08-20T18:09:26.285Z,46.54
2022-08-20T18:13:44.888Z,46.97
2022-08-20T18:18:06.884Z,47.27
2022-08-20T18:22:11.614Z,48.18
2022-08-20T18:26:19.071Z,48.49
2022-08-20T18:30:23.190Z,49.05
2022-08-20T18:34:38.957Z,49.54
2022-08-20T18:38:41.898Z,49.06
2022-08-20T18:42:45.689Z,49.95
2022-08-20T18:46:53.205Z,50.10
2022-08-20T18:50:57.539Z,50.69
2022-08-20T18:55:01.258Z,51.29
2022-08-20T18:59:13.362Z,51.41
2022-08-20T19:03:23.384Z,52.09
2022-08-20T19:07:43.298Z,52.57
2022-08-20T19:12:04.084Z,52.45
2022-08-20T19:21:16.037Z,53.66
2022-08-20T19:25:25.926Z,53.08
2022-08-20T19:29:30.550Z,53.63
2022-08-20T19:33:32.730Z,53.58
2022-08-20T19:37:51.166Z,53.94
2022-08-20T19:41:58.490Z,53.99
2022-08-20T19:46:01.428Z,53.95
2022-08-20T19:50:19.158Z,55.17
2022-08-20T19:54:22.791Z,56.15
2022-08-20T19:58:26.742Z,57.16
2022-08-20T20:02:32.054Z,56.54
2022-08-20T20:06:41.306Z,56.87
2022-08-20T20:10:43.726Z,57.23
2022-08-20T20:14:47.571Z,56.27
2022-08-20T20:19:09.098Z,54.73
2022-08-20T20:23:14.372Z,54.81
2022-08-20T20:27:21.766Z,54.90
2022-08-20T20:31:28.587Z,55.60
2022-08-20T20:35:32.534Z,55.92
2022-08-20T20:39:36.898Z,55.47
2022-08-20T20:43:42.939Z,57.63
2022-08-20T20:47:51.948Z,55.26
2022-08-20T20:51:57.367Z,55.45
2022-08-20T20:55:58.878Z,56.40
2022-08-20T21:00:00.423Z,56.56
2022-08-20T21:04:03.729Z,56.75
2022-08-20T21:08:08.684Z,57.86
2022-08-20T21:12:11.520Z,56.85
2022-08-20T21:16:13.052Z,57.47
2022-08-20T21:20:15.985Z,58.65
2022-08-20T21:24:17.596Z,59.55
2022-08-20T21:28:20.088Z,60.15
2022-08-20T21:32:21.939Z,59.98
2022-08-20T21:36:25.271Z,60.84
2022-08-20T21:40:28.394Z,60.11
2022-08-20T21:44:32.023Z,60.54
2022-08-20T21:48:33.719Z,60.32
2022-08-20T21:52:36.931Z,61.00
2022-08-20T21:56:45.518Z,61.30
2022-08-20T22:00:53.881Z,61.39
2022-08-20T22:04:55.650Z,61.27
2022-08-20T22:08:58.622Z,62.13
2022-08-20T22:13:00.158Z,62.37
2022-08-20T22:17:01.965Z,62.06
2022-08-20T22:21:07.938Z,62.49
2022-08-20T22:25:12.262Z,62.35
2022-08-20T22:29:15.261Z,63.01
2022-08-20T22:33:21.513Z,63.16
2022-08-20T22:37:24.622Z,63.99
2022-08-20T22:41:28.009Z,64.59
2022-08-20T22:45:29.813Z,64.62
2022-08-20T22:49:36.285Z,64.58
2022-08-20T22:53:37.889Z,65.42
2022-08-20T22:57:40.997Z,65.81
2022-08-20T23:01:44.340Z,64.73
2022-08-20T23:05:47.257Z,65.99
2022-08-20T23:09:48.901Z,65.93
2022-08-20T23:13:51.907Z,64.98
2022-08-20T23:17:59.817Z,65.24
2022-08-20T23:22:01.484Z,64.83
2022-08-20T23:26:03.231Z,66.20
2022-08-20T23:30:07.481Z,65.23
2022-08-20T23:34:09.482Z,66.00
2022-08-20T23:38:11.701Z,66.10
2022-08-20T23:42:14.145Z,65.34
2022-08-20T23:46:18.664Z,67.34
2022-08-20T23:50:24.095Z,67.77
2022-08-20T23:54:26.154Z,68.10
2022-08-20T23:58:27.721Z,68.32
